sensor_id;sensor_type;location;lat;lon;timestamp;P1;durP1;ratioP1;P2;durP2;ratioP2
22480;SDS011;11407;56.964;-2.212;2022-08-14T00:02:13;4.37;;;3.83;;
22480;SDS011;11407;56.964;-2.212;2022-08-14T00:04:38;5.03;;;4.40;;
22480;SDS011;11407;56.964;-2.212;2022-08-14T00:07:04;4.50;;;4.10;;
22480;SDS011;11407;56.964;-2.212;2022-08-14T00:09:30;4.40;;;4.00;;
22480;SDS011;11407;56.964;-2.212;2022-08-14T00:11:56;4.57;;;3.90;;
22480;SDS011;11407;56.964;-2.212;2022-08-14T00:14:22;5.37;;;4.27;;
22480;SDS011;11407;56.964;-2.212;2022-08-14T00:16:48;4.80;;;4.07;;
22480;SDS011;11407;56.964;-2.212;2022-08-14T00:19:14;5.00;;;4.27;;
22480;SDS011;11407;56.964;-2.212;2022-08-14T00:21:41;5.53;;;4.30;;
22480;SDS011;11407;56.964;-2.212;2022-08-14T00:24:07;4.90;;;4.40;;
22480;SDS011;11407;56.964;-2.212;2022-08-14T00:26:32;5.47;;;4.40;;
22480;SDS011;11407;56.964;-2.212;2022-08-14T00:28:58;5.67;;;3.90;;
22480;SDS011;11407;56.964;-2.212;2022-08-14T00:31:23;5.20;;;4.50;;
22480;SDS011;11407;56.964;-2.212;2022-08-14T00:33:49;4.97;;;4.47;;
22480;SDS011;11407;56.964;-2.212;2022-08-14T00:36:14;4.60;;;4.13;;
22480;SDS011;11407;56.964;-2.212;2022-08-14T00:38:40;4.73;;;4.07;;
22480;SDS011;11407;56.964;-2.212;2022-08-14T00:41:08;4.87;;;3.90;;
22480;SDS011;11407;56.964;-2.212;2022-08-14T00:43:35;6.03;;;4.83;;
22480;SDS011;11407;56.964;-2.212;2022-08-14T00:46:04;10.77;;;8.10;;
22480;SDS011;11407;56.964;-2.212;2022-08-14T00:48:32;8.70;;;5.73;;
22480;SDS011;11407;56.964;-2.212;2022-08-14T00:50:57;7.77;;;5.10;;
22480;SDS011;11407;56.964;-2.212;2022-08-14T00:53:23;4.37;;;3.97;;
22480;SDS011;11407;56.964;-2.212;2022-08-14T00:55:50;4.37;;;3.77;;
22480;SDS011;11407;56.964;-2.212;2022-08-14T00:58:19;4.10;;;3.60;;
22480;SDS011;11407;56.964;-2.212;2022-08-14T01:00:54;6.30;;;3.97;;
22480;SDS011;11407;56.964;-2.212;2022-08-14T01:03:21;5.63;;;4.33;;
22480;SDS011;11407;56.964;-2.212;2022-08-14T01:05:47;6.70;;;4.30;;
22480;SDS011;11407;56.964;-2.212;2022-08-14T01:08:16;5.13;;;4.40;;
22480;SDS011;11407;56.964;-2.212;2022-08-14T01:10:47;5.00;;;4.23;;
22480;SDS011;11407;56.964;-2.212;2022-08-14T01:13:17;5.30;;;4.30;;
22480;SDS011;11407;56.964;-2.212;2022-08-14T01:15:46;5.97;;;4.90;;
22480;SDS011;11407;56.964;-2.212;2022-08-14T01:18:14;6.00;;;4.20;;
22480;SDS011;11407;56.964;-2.212;2022-08-14T01:20:59;4.93;;;3.87;;
22480;SDS011;11407;56.964;-2.212;2022-08-14T01:23:28;5.10;;;3.60;;
22480;SDS011;11407;56.964;-2.212;2022-08-14T01:25:55;4.17;;;3.67;;
22480;SDS011;11407;56.964;-2.212;2022-08-14T01:28:22;5.17;;;4.03;;
22480;SDS011;11407;56.964;-2.212;2022-08-14T01:30:50;5.50;;;3.90;;
22480;SDS011;11407;56.964;-2.212;2022-08-14T01:33:20;4.23;;;3.37;;
22480;SDS011;11407;56.964;-2.212;2022-08-14T01:35:53;4.20;;;3.57;;
22480;SDS011;11407;56.964;-2.212;2022-08-14T01:38:24;5.57;;;3.70;;
22480;SDS011;11407;56.964;-2.212;2022-08-14T01:40:58;4.27;;;3.87;;
22480;SDS011;11407;56.964;-2.212;2022-08-14T01:43:25;4.83;;;4.03;;
22480;SDS011;11407;56.964;-2.212;2022-08-14T01:45:55;6.53;;;4.43;;
22480;SDS011;11407;56.964;-2.212;2022-08-14T01:48:22;5.87;;;4.40;;
22480;SDS011;11407;56.964;-2.212;2022-08-14T01:50:49;5.13;;;4.37;;
22480;SDS011;11407;56.964;-2.212;2022-08-14T01:53:15;5.63;;;4.23;;
22480;SDS011;11407;56.964;-2.212;2022-08-14T01:55:42;6.23;;;4.13;;
22480;SDS011;11407;56.964;-2.212;2022-08-14T01:58:07;5.27;;;3.97;;
22480;SDS011;11407;56.964;-2.212;2022-08-14T02:00:40;6.67;;;4.50;;
22480;SDS011;11407;56.964;-2.212;2022-08-14T02:03:05;5.13;;;4.03;;
22480;SDS011;11407;56.964;-2.212;2022-08-14T02:05:31;5.70;;;4.63;;
22480;SDS011;11407;56.964;-2.212;2022-08-14T02:07:58;5.60;;;4.17;;
22480;SDS011;11407;56.964;-2.212;2022-08-14T02:10:24;4.73;;;4.27;;
22480;SDS011;11407;56.964;-2.212;2022-08-14T02:12:53;6.67;;;4.20;;
22480;SDS011;11407;56.964;-2.212;2022-08-14T02:15:22;4.07;;;3.67;;
22480;SDS011;11407;56.964;-2.212;2022-08-14T02:17:49;5.50;;;3.83;;
22480;SDS011;11407;56.964;-2.212;2022-08-14T02:20:14;4.40;;;4.00;;
22480;SDS011;11407;56.964;-2.212;2022-08-14T02:22:42;3.80;;;3.50;;
22480;SDS011;11407;56.964;-2.212;2022-08-14T02:25:08;5.60;;;3.63;;
22480;SDS011;11407;56.964;-2.212;2022-08-14T02:27:34;3.90;;;3.60;;
22480;SDS011;11407;56.964;-2.212;2022-08-14T02:30:01;4.27;;;3.70;;
22480;SDS011;11407;56.964;-2.212;2022-08-14T02:32:30;4.20;;;3.80;;
22480;SDS011;11407;56.964;-2.212;2022-08-14T02:34:59;4.77;;;3.80;;
22480;SDS011;11407;56.964;-2.212;2022-08-14T02:37:24;4.27;;;3.80;;
22480;SDS011;11407;56.964;-2.212;2022-08-14T02:39:50;4.77;;;3.70;;
22480;SDS011;11407;56.964;-2.212;2022-08-14T02:42:17;6.03;;;3.80;;
22480;SDS011;11407;56.964;-2.212;2022-08-14T02:44:45;5.63;;;3.80;;
22480;SDS011;11407;56.964;-2.212;2022-08-14T02:47:11;6.50;;;4.10;;
22480;SDS011;11407;56.964;-2.212;2022-08-14T02:49:37;7.87;;;4.63;;
22480;SDS011;11407;56.964;-2.212;2022-08-14T02:52:03;7.00;;;4.17;;
22480;SDS011;11407;56.964;-2.212;2022-08-14T02:54:30;8.17;;;4.73;;
22480;SDS011;11407;56.964;-2.212;2022-08-14T02:56:56;6.73;;;4.80;;
22480;SDS011;11407;56.964;-2.212;2022-08-14T02:59:24;8.37;;;4.93;;
22480;SDS011;11407;56.964;-2.212;2022-08-14T03:01:53;8.67;;;5.87;;
22480;SDS011;11407;56.964;-2.212;2022-08-14T03:04:20;8.00;;;5.30;;
22480;SDS011;11407;56.964;-2.212;2022-08-14T03:06:46;8.17;;;4.80;;
22480;SDS011;11407;56.964;-2.212;2022-08-14T03:09:13;7.17;;;4.90;;
22480;SDS011;11407;56.964;-2.212;2022-08-14T03:11:39;9.40;;;5.03;;
22480;SDS011;11407;56.964;-2.212;2022-08-14T03:14:06;7.17;;;4.93;;
22480;SDS011;11407;56.964;-2.212;2022-08-14T03:16:33;7.67;;;5.10;;
22480;SDS011;11407;56.964;-2.212;2022-08-14T03:19:01;7.13;;;5.00;;
22480;SDS011;11407;56.964;-2.212;2022-08-14T03:21:29;6.13;;;4.37;;
22480;SDS011;11407;56.964;-2.212;2022-08-14T03:23:55;5.13;;;4.47;;
22480;SDS011;11407;56.964;-2.212;2022-08-14T03:26:40;7.33;;;4.73;;
22480;SDS011;11407;56.964;-2.212;2022-08-14T03:29:07;7.53;;;4.63;;
22480;SDS011;11407;56.964;-2.212;2022-08-14T03:31:34;6.77;;;4.47;;
22480;SDS011;11407;56.964;-2.212;2022-08-14T03:34:00;5.77;;;4.13;;
22480;SDS011;11407;56.964;-2.212;2022-08-14T03:36:28;8.93;;;5.00;;
22480;SDS011;11407;56.964;-2.212;2022-08-14T03:38:56;8.50;;;4.73;;
22480;SDS011;11407;56.964;-2.212;2022-08-14T03:41:23;6.37;;;4.60;;
22480;SDS011;11407;56.964;-2.212;2022-08-14T03:43:58;7.73;;;4.53;;
22480;SDS011;11407;56.964;-2.212;2022-08-14T03:46:26;5.67;;;4.63;;
22480;SDS011;11407;56.964;-2.212;2022-08-14T03:48:56;5.23;;;4.20;;
22480;SDS011;11407;56.964;-2.212;2022-08-14T03:51:22;6.67;;;4.80;;
22480;SDS011;11407;56.964;-2.212;2022-08-14T03:53:53;5.60;;;4.27;;
22480;SDS011;11407;56.964;-2.212;2022-08-14T03:56:20;7.50;;;4.47;;
22480;SDS011;11407;56.964;-2.212;2022-08-14T03:58:46;5.77;;;4.07;;
22480;SDS011;11407;56.964;-2.212;2022-08-14T04:01:15;4.53;;;4.00;;
22480;SDS011;11407;56.964;-2.212;2022-08-14T04:03:47;5.23;;;4.30;;
22480;SDS011;11407;56.964;-2.212;2022-08-14T04:06:13;6.17;;;4.50;;
22480;SDS011;11407;56.964;-2.212;2022-08-14T04:08:40;5.63;;;4.60;;
22480;SDS011;11407;56.964;-2.212;2022-08-14T04:11:07;5.53;;;4.10;;
22480;SDS011;11407;56.964;-2.212;2022-08-14T04:13:35;6.00;;;4.37;;
22480;SDS011;11407;56.964;-2.212;2022-08-14T04:16:06;5.23;;;4.30;;
22480;SDS011;11407;56.964;-2.212;2022-08-14T04:18:33;6.03;;;4.43;;
22480;SDS011;11407;56.964;-2.212;2022-08-14T04:21:03;5.50;;;4.40;;
22480;SDS011;11407;56.964;-2.212;2022-08-14T04:23:29;5.80;;;5.00;;
22480;SDS011;11407;56.964;-2.212;2022-08-14T04:25:55;6.37;;;4.60;;
22480;SDS011;11407;56.964;-2.212;2022-08-14T04:28:21;6.33;;;4.73;;
22480;SDS011;11407;56.964;-2.212;2022-08-14T04:30:46;5.80;;;4.27;;
22480;SDS011;11407;56.964;-2.212;2022-08-14T04:33:12;6.70;;;5.17;;
22480;SDS011;11407;56.964;-2.212;2022-08-14T04:35:39;6.17;;;4.40;;
22480;SDS011;11407;56.964;-2.212;2022-08-14T04:38:05;6.53;;;4.67;;
22480;SDS011;11407;56.964;-2.212;2022-08-14T04:40:53;8.77;;;4.63;;
22480;SDS011;11407;56.964;-2.212;2022-08-14T04:43:37;7.23;;;5.33;;
22480;SDS011;11407;56.964;-2.212;2022-08-14T04:46:08;6.13;;;4.70;;
22480;SDS011;11407;56.964;-2.212;2022-08-14T04:48:34;6.10;;;4.57;;
22480;SDS011;11407;56.964;-2.212;2022-08-14T04:51:00;8.43;;;4.93;;
22480;SDS011;11407;56.964;-2.212;2022-08-14T04:53:27;7.07;;;4.70;;
22480;SDS011;11407;56.964;-2.212;2022-08-14T04:55:54;7.70;;;4.60;;
22480;SDS011;11407;56.964;-2.212;2022-08-14T04:58:21;7.63;;;4.97;;
22480;SDS011;11407;56.964;-2.212;2022-08-14T05:00:50;7.23;;;5.00;;
22480;SDS011;11407;56.964;-2.212;2022-08-14T05:03:17;7.90;;;4.43;;
22480;SDS011;11407;56.964;-2.212;2022-08-14T05:05:46;5.40;;;4.57;;
22480;SDS011;11407;56.964;-2.212;2022-08-14T05:08:12;5.73;;;4.03;;
22480;SDS011;11407;56.964;-2.212;2022-08-14T05:10:44;7.03;;;4.67;;
22480;SDS011;11407;56.964;-2.212;2022-08-14T05:13:13;5.80;;;4.60;;
22480;SDS011;11407;56.964;-2.212;2022-08-14T05:15:39;6.67;;;5.23;;
22480;SDS011;11407;56.964;-2.212;2022-08-14T05:18:12;6.83;;;4.97;;
22480;SDS011;11407;56.964;-2.212;2022-08-14T05:20:40;6.13;;;4.60;;
22480;SDS011;11407;56.964;-2.212;2022-08-14T05:23:08;5.93;;;4.50;;
22480;SDS011;11407;56.964;-2.212;2022-08-14T05:25:34;6.27;;;4.13;;
22480;SDS011;11407;56.964;-2.212;2022-08-14T05:28:10;5.37;;;4.10;;
22480;SDS011;11407;56.964;-2.212;2022-08-14T05:30:38;6.23;;;4.03;;
22480;SDS011;11407;56.964;-2.212;2022-08-14T05:33:06;5.40;;;4.17;;
22480;SDS011;11407;56.964;-2.212;2022-08-14T05:35:31;4.37;;;3.90;;
22480;SDS011;11407;56.964;-2.212;2022-08-14T05:37:58;4.27;;;3.87;;
22480;SDS011;11407;56.964;-2.212;2022-08-14T05:40:24;3.97;;;3.57;;
22480;SDS011;11407;56.964;-2.212;2022-08-14T05:42:50;5.20;;;3.47;;
22480;SDS011;11407;56.964;-2.212;2022-08-14T05:45:15;5.07;;;4.30;;
22480;SDS011;11407;56.964;-2.212;2022-08-14T05:47:41;4.93;;;3.70;;
22480;SDS011;11407;56.964;-2.212;2022-08-14T05:50:07;4.93;;;3.20;;
22480;SDS011;11407;56.964;-2.212;2022-08-14T05:52:35;3.77;;;3.27;;
22480;SDS011;11407;56.964;-2.212;2022-08-14T05:55:01;3.93;;;3.53;;
22480;SDS011;11407;56.964;-2.212;2022-08-14T05:57:27;4.03;;;3.47;;
22480;SDS011;11407;56.964;-2.212;2022-08-14T05:59:53;5.30;;;3.87;;
22480;SDS011;11407;56.964;-2.212;2022-08-14T06:02:18;4.90;;;3.40;;
22480;SDS011;11407;56.964;-2.212;2022-08-14T06:04:44;3.70;;;3.40;;
22480;SDS011;11407;56.964;-2.212;2022-08-14T06:07:12;4.40;;;3.90;;
22480;SDS011;11407;56.964;-2.212;2022-08-14T06:09:39;3.60;;;3.17;;
22480;SDS011;11407;56.964;-2.212;2022-08-14T06:12:04;4.47;;;3.70;;
22480;SDS011;11407;56.964;-2.212;2022-08-14T06:14:30;3.67;;;3.33;;
22480;SDS011;11407;56.964;-2.212;2022-08-14T06:16:56;3.53;;;3.23;;
22480;SDS011;11407;56.964;-2.212;2022-08-14T06:19:21;4.33;;;3.23;;
22480;SDS011;11407;56.964;-2.212;2022-08-14T06:21:47;3.90;;;3.13;;
22480;SDS011;11407;56.964;-2.212;2022-08-14T06:24:12;3.60;;;2.83;;
22480;SDS011;11407;56.964;-2.212;2022-08-14T06:26:37;3.60;;;3.20;;
22480;SDS011;11407;56.964;-2.212;2022-08-14T06:29:03;3.40;;;3.10;;
22480;SDS011;11407;56.964;-2.212;2022-08-14T06:31:28;3.80;;;2.90;;
22480;SDS011;11407;56.964;-2.212;2022-08-14T06:33:54;4.03;;;2.80;;
22480;SDS011;11407;56.964;-2.212;2022-08-14T06:36:20;2.60;;;2.40;;
22480;SDS011;11407;56.964;-2.212;2022-08-14T06:38:45;2.50;;;2.30;;
22480;SDS011;11407;56.964;-2.212;2022-08-14T06:41:11;2.70;;;2.50;;
22480;SDS011;11407;56.964;-2.212;2022-08-14T06:43:37;3.13;;;2.83;;
22480;SDS011;11407;56.964;-2.212;2022-08-14T06:46:02;3.30;;;3.00;;
22480;SDS011;11407;56.964;-2.212;2022-08-14T06:48:28;3.23;;;2.93;;
22480;SDS011;11407;56.964;-2.212;2022-08-14T06:50:53;3.80;;;2.50;;
22480;SDS011;11407;56.964;-2.212;2022-08-14T06:53:19;2.30;;;2.10;;
22480;SDS011;11407;56.964;-2.212;2022-08-14T06:55:46;2.27;;;2.07;;
22480;SDS011;11407;56.964;-2.212;2022-08-14T06:58:14;2.33;;;2.13;;
22480;SDS011;11407;56.964;-2.212;2022-08-14T07:00:41;2.00;;;1.90;;
22480;SDS011;11407;56.964;-2.212;2022-08-14T07:03:29;2.30;;;2.10;;
22480;SDS011;11407;56.964;-2.212;2022-08-14T07:06:14;2.63;;;1.97;;
22480;SDS011;11407;56.964;-2.212;2022-08-14T07:08:41;1.60;;;1.50;;
22480;SDS011;11407;56.964;-2.212;2022-08-14T07:11:07;1.80;;;1.70;;
22480;SDS011;11407;56.964;-2.212;2022-08-14T07:13:33;2.20;;;2.00;;
22480;SDS011;11407;56.964;-2.212;2022-08-14T07:15:59;1.80;;;1.70;;
22480;SDS011;11407;56.964;-2.212;2022-08-14T07:18:25;2.10;;;1.87;;
22480;SDS011;11407;56.964;-2.212;2022-08-14T07:20:52;2.00;;;1.70;;
22480;SDS011;11407;56.964;-2.212;2022-08-14T07:23:18;1.83;;;1.70;;
22480;SDS011;11407;56.964;-2.212;2022-08-14T07:25:46;1.97;;;1.77;;
22480;SDS011;11407;56.964;-2.212;2022-08-14T07:28:16;1.70;;;1.60;;
22480;SDS011;11407;56.964;-2.212;2022-08-14T07:30:44;2.10;;;1.80;;
22480;SDS011;11407;56.964;-2.212;2022-08-14T07:33:10;1.80;;;1.70;;
22480;SDS011;11407;56.964;-2.212;2022-08-14T07:35:37;2.17;;;1.93;;
22480;SDS011;11407;56.964;-2.212;2022-08-14T07:38:04;1.60;;;1.50;;
22480;SDS011;11407;56.964;-2.212;2022-08-14T07:40:30;1.90;;;1.80;;
22480;SDS011;11407;56.964;-2.212;2022-08-14T07:42:56;2.10;;;1.90;;
22480;SDS011;11407;56.964;-2.212;2022-08-14T07:45:22;2.70;;;2.43;;
22480;SDS011;11407;56.964;-2.212;2022-08-14T07:47:47;2.33;;;2.13;;
22480;SDS011;11407;56.964;-2.212;2022-08-14T07:50:14;2.20;;;2.00;;
22480;SDS011;11407;56.964;-2.212;2022-08-14T07:52:45;3.23;;;2.33;;
22480;SDS011;11407;56.964;-2.212;2022-08-14T07:55:12;2.40;;;2.20;;
22480;SDS011;11407;56.964;-2.212;2022-08-14T07:57:39;2.37;;;2.17;;
22480;SDS011;11407;56.964;-2.212;2022-08-14T08:00:10;2.50;;;2.23;;
22480;SDS011;11407;56.964;-2.212;2022-08-14T08:02:39;1.97;;;1.80;;
22480;SDS011;11407;56.964;-2.212;2022-08-14T08:05:06;1.80;;;1.70;;
22480;SDS011;11407;56.964;-2.212;2022-08-14T08:07:33;2.30;;;2.10;;
22480;SDS011;11407;56.964;-2.212;2022-08-14T08:10:02;1.70;;;1.60;;
22480;SDS011;11407;56.964;-2.212;2022-08-14T08:13:01;1.67;;;1.57;;
22480;SDS011;11407;56.964;-2.212;2022-08-14T08:15:35;2.87;;;1.80;;
22480;SDS011;11407;56.964;-2.212;2022-08-14T08:18:03;2.13;;;1.93;;
22480;SDS011;11407;56.964;-2.212;2022-08-14T08:20:31;1.80;;;1.67;;
22480;SDS011;11407;56.964;-2.212;2022-08-14T08:22:58;2.60;;;2.40;;
22480;SDS011;11407;56.964;-2.212;2022-08-14T08:25:25;1.83;;;1.60;;
22480;SDS011;11407;56.964;-2.212;2022-08-14T08:28:03;2.27;;;2.00;;
22480;SDS011;11407;56.964;-2.212;2022-08-14T08:30:35;3.17;;;2.83;;
22480;SDS011;11407;56.964;-2.212;2022-08-14T08:33:02;2.90;;;2.20;;
22480;SDS011;11407;56.964;-2.212;2022-08-14T08:35:30;2.67;;;2.37;;
22480;SDS011;11407;56.964;-2.212;2022-08-14T08:38:06;2.53;;;2.10;;
22480;SDS011;11407;56.964;-2.212;2022-08-14T08:40:34;2.97;;;2.03;;
22480;SDS011;11407;56.964;-2.212;2022-08-14T08:43:04;3.47;;;2.30;;
22480;SDS011;11407;56.964;-2.212;2022-08-14T08:45:31;3.10;;;2.63;;
22480;SDS011;11407;56.964;-2.212;2022-08-14T08:47:58;2.87;;;2.37;;
22480;SDS011;11407;56.964;-2.212;2022-08-14T08:50:31;3.27;;;2.50;;
22480;SDS011;11407;56.964;-2.212;2022-08-14T08:53:01;2.50;;;2.23;;
22480;SDS011;11407;56.964;-2.212;2022-08-14T08:55:38;2.77;;;2.20;;
22480;SDS011;11407;56.964;-2.212;2022-08-14T08:58:11;3.27;;;2.50;;
22480;SDS011;11407;56.964;-2.212;2022-08-14T09:00:42;2.93;;;2.60;;
22480;SDS011;11407;56.964;-2.212;2022-08-14T09:03:12;3.57;;;2.73;;
22480;SDS011;11407;56.964;-2.212;2022-08-14T09:06:02;3.97;;;3.00;;
22480;SDS011;11407;56.964;-2.212;2022-08-14T09:08:33;2.97;;;2.63;;
22480;SDS011;11407;56.964;-2.212;2022-08-14T09:11:04;4.17;;;3.10;;
22480;SDS011;11407;56.964;-2.212;2022-08-14T09:13:33;4.30;;;3.00;;
22480;SDS011;11407;56.964;-2.212;2022-08-14T09:15:59;5.17;;;3.90;;
22480;SDS011;11407;56.964;-2.212;2022-08-14T09:18:26;4.87;;;3.80;;
22480;SDS011;11407;56.964;-2.212;2022-08-14T09:20:53;4.47;;;3.60;;
22480;SDS011;11407;56.964;-2.212;2022-08-14T09:23:20;3.97;;;3.20;;
22480;SDS011;11407;56.964;-2.212;2022-08-14T09:25:47;5.73;;;3.40;;
22480;SDS011;11407;56.964;-2.212;2022-08-14T09:28:15;4.50;;;4.10;;
22480;SDS011;11407;56.964;-2.212;2022-08-14T09:30:51;4.33;;;3.93;;
22480;SDS011;11407;56.964;-2.212;2022-08-14T09:38:46;5.33;;;3.87;;
22480;SDS011;11407;56.964;-2.212;2022-08-14T09:44:06;5.23;;;4.57;;
22480;SDS011;11407;56.964;-2.212;2022-08-14T09:46:51;5.43;;;4.57;;
22480;SDS011;11407;56.964;-2.212;2022-08-14T09:49:30;5.90;;;5.17;;
22480;SDS011;11407;56.964;-2.212;2022-08-14T09:52:03;5.57;;;4.80;;
22480;SDS011;11407;56.964;-2.212;2022-08-14T09:57:09;6.60;;;5.20;;
22480;SDS011;11407;56.964;-2.212;2022-08-14T09:59:45;5.40;;;4.90;;
22480;SDS011;11407;56.964;-2.212;2022-08-14T10:02:24;5.30;;;4.80;;
22480;SDS011;11407;56.964;-2.212;2022-08-14T10:05:10;5.60;;;5.10;;
22480;SDS011;11407;56.964;-2.212;2022-08-14T10:07:44;6.03;;;4.47;;
22480;SDS011;11407;56.964;-2.212;2022-08-14T10:13:03;5.70;;;4.90;;
22480;SDS011;11407;56.964;-2.212;2022-08-14T10:15:43;4.47;;;3.63;;
22480;SDS011;11407;56.964;-2.212;2022-08-14T10:18:10;4.03;;;3.50;;
22480;SDS011;11407;56.964;-2.212;2022-08-14T10:20:42;6.00;;;4.73;;
22480;SDS011;11407;56.964;-2.212;2022-08-14T10:23:16;4.30;;;3.80;;
22480;SDS011;11407;56.964;-2.212;2022-08-14T10:25:48;4.30;;;3.50;;
22480;SDS011;11407;56.964;-2.212;2022-08-14T10:28:16;4.93;;;3.23;;
22480;SDS011;11407;56.964;-2.212;2022-08-14T10:30:43;5.50;;;4.23;;
22480;SDS011;11407;56.964;-2.212;2022-08-14T10:33:25;7.03;;;3.90;;
22480;SDS011;11407;56.964;-2.212;2022-08-14T10:35:56;2.73;;;2.50;;
22480;SDS011;11407;56.964;-2.212;2022-08-14T10:38:31;3.10;;;2.80;;
22480;SDS011;11407;56.964;-2.212;2022-08-14T10:41:16;6.17;;;3.27;;
22480;SDS011;11407;56.964;-2.212;2022-08-14T10:43:43;2.97;;;2.60;;
22480;SDS011;11407;56.964;-2.212;2022-08-14T10:46:16;3.27;;;2.87;;
22480;SDS011;11407;56.964;-2.212;2022-08-14T10:48:54;2.90;;;2.60;;
22480;SDS011;11407;56.964;-2.212;2022-08-14T10:51:28;3.67;;;2.70;;
22480;SDS011;11407;56.964;-2.212;2022-08-14T10:53:55;3.03;;;2.73;;
22480;SDS011;11407;56.964;-2.212;2022-08-14T10:56:28;5.57;;;2.70;;
22480;SDS011;11407;56.964;-2.212;2022-08-14T10:59:01;5.40;;;2.53;;
22480;SDS011;11407;56.964;-2.212;2022-08-14T11:01:30;2.50;;;2.20;;
22480;SDS011;11407;56.964;-2.212;2022-08-14T11:03:56;3.90;;;2.23;;
22480;SDS011;11407;56.964;-2.212;2022-08-14T11:06:22;2.67;;;2.47;;
22480;SDS011;11407;56.964;-2.212;2022-08-14T11:08:48;2.20;;;2.00;;
22480;SDS011;11407;56.964;-2.212;2022-08-14T11:11:14;2.20;;;2.00;;
22480;SDS011;11407;56.964;-2.212;2022-08-14T11:13:41;2.50;;;2.30;;
22480;SDS011;11407;56.964;-2.212;2022-08-14T11:16:08;1.97;;;1.87;;
22480;SDS011;11407;56.964;-2.212;2022-08-14T11:18:35;4.30;;;2.33;;
22480;SDS011;11407;56.964;-2.212;2022-08-14T11:21:01;2.53;;;2.30;;
22480;SDS011;11407;56.964;-2.212;2022-08-14T11:23:30;4.13;;;3.50;;
22480;SDS011;11407;56.964;-2.212;2022-08-14T11:25:57;4.53;;;3.67;;
22480;SDS011;11407;56.964;-2.212;2022-08-14T11:28:27;4.73;;;3.70;;
22480;SDS011;11407;56.964;-2.212;2022-08-14T11:30:56;5.47;;;4.10;;
22480;SDS011;11407;56.964;-2.212;2022-08-14T11:33:24;3.57;;;3.27;;
22480;SDS011;11407;56.964;-2.212;2022-08-14T11:35:53;4.77;;;4.27;;
22480;SDS011;11407;56.964;-2.212;2022-08-14T11:38:19;5.80;;;4.70;;
22480;SDS011;11407;56.964;-2.212;2022-08-14T11:40:45;5.23;;;4.73;;
22480;SDS011;11407;56.964;-2.212;2022-08-14T11:43:11;4.83;;;4.23;;
22480;SDS011;11407;56.964;-2.212;2022-08-14T11:45:37;5.30;;;4.60;;
22480;SDS011;11407;56.964;-2.212;2022-08-14T11:50:49;4.70;;;4.23;;
22480;SDS011;11407;56.964;-2.212;2022-08-14T11:53:22;6.07;;;4.87;;
22480;SDS011;11407;56.964;-2.212;2022-08-14T11:56:02;6.37;;;4.90;;
22480;SDS011;11407;56.964;-2.212;2022-08-14T11:58:30;6.90;;;4.93;;
22480;SDS011;11407;56.964;-2.212;2022-08-14T12:00:59;5.50;;;4.90;;
22480;SDS011;11407;56.964;-2.212;2022-08-14T12:03:34;6.07;;;4.80;;
22480;SDS011;11407;56.964;-2.212;2022-08-14T12:06:07;5.30;;;4.80;;
22480;SDS011;11407;56.964;-2.212;2022-08-14T12:08:35;6.43;;;5.10;;
22480;SDS011;11407;56.964;-2.212;2022-08-14T12:11:02;7.37;;;5.90;;
22480;SDS011;11407;56.964;-2.212;2022-08-14T12:13:29;5.83;;;5.23;;
22480;SDS011;11407;56.964;-2.212;2022-08-14T12:16:16;6.13;;;5.07;;
22480;SDS011;11407;56.964;-2.212;2022-08-14T12:18:42;5.60;;;5.00;;
22480;SDS011;11407;56.964;-2.212;2022-08-14T12:21:19;6.70;;;5.00;;
22480;SDS011;11407;56.964;-2.212;2022-08-14T12:23:47;6.27;;;5.20;;
22480;SDS011;11407;56.964;-2.212;2022-08-14T12:26:25;6.27;;;5.67;;
22480;SDS011;11407;56.964;-2.212;2022-08-14T12:29:03;5.80;;;5.20;;
22480;SDS011;11407;56.964;-2.212;2022-08-14T12:31:36;7.00;;;5.10;;
22480;SDS011;11407;56.964;-2.212;2022-08-14T12:34:04;6.93;;;4.97;;
22480;SDS011;11407;56.964;-2.212;2022-08-14T12:36:32;5.70;;;5.10;;
22480;SDS011;11407;56.964;-2.212;2022-08-14T12:38:59;8.87;;;5.20;;
22480;SDS011;11407;56.964;-2.212;2022-08-14T12:41:31;5.83;;;5.13;;
22480;SDS011;11407;56.964;-2.212;2022-08-14T12:44:03;8.33;;;5.73;;
22480;SDS011;11407;56.964;-2.212;2022-08-14T12:46:34;7.00;;;5.63;;
22480;SDS011;11407;56.964;-2.212;2022-08-14T12:49:07;6.37;;;5.53;;
22480;SDS011;11407;56.964;-2.212;2022-08-14T12:51:35;6.87;;;6.17;;
22480;SDS011;11407;56.964;-2.212;2022-08-14T12:54:10;6.97;;;5.87;;
22480;SDS011;11407;56.964;-2.212;2022-08-14T12:56:38;6.07;;;5.30;;
22480;SDS011;11407;56.964;-2.212;2022-08-14T12:59:04;7.60;;;6.17;;
22480;SDS011;11407;56.964;-2.212;2022-08-14T13:01:30;9.57;;;5.90;;
22480;SDS011;11407;56.964;-2.212;2022-08-14T13:04:07;6.77;;;5.53;;
22480;SDS011;11407;56.964;-2.212;2022-08-14T13:06:34;7.80;;;5.80;;
22480;SDS011;11407;56.964;-2.212;2022-08-14T13:09:02;8.90;;;6.27;;
22480;SDS011;11407;56.964;-2.212;2022-08-14T13:11:41;8.43;;;6.27;;
22480;SDS011;11407;56.964;-2.212;2022-08-14T13:14:11;15.93;;;6.97;;
22480;SDS011;11407;56.964;-2.212;2022-08-14T13:16:40;6.20;;;5.60;;
22480;SDS011;11407;56.964;-2.212;2022-08-14T13:19:08;9.40;;;6.70;;
22480;SDS011;11407;56.964;-2.212;2022-08-14T13:21:39;6.47;;;5.77;;
22480;SDS011;11407;56.964;-2.212;2022-08-14T13:24:05;8.27;;;6.33;;
22480;SDS011;11407;56.964;-2.212;2022-08-14T13:26:36;7.30;;;5.73;;
22480;SDS011;11407;56.964;-2.212;2022-08-14T13:29:02;7.10;;;5.40;;
22480;SDS011;11407;56.964;-2.212;2022-08-14T13:31:31;7.13;;;5.80;;
22480;SDS011;11407;56.964;-2.212;2022-08-14T13:33:57;10.53;;;6.10;;
22480;SDS011;11407;56.964;-2.212;2022-08-14T13:36:24;7.13;;;6.10;;
22480;SDS011;11407;56.964;-2.212;2022-08-14T13:38:51;6.53;;;5.90;;
22480;SDS011;11407;56.964;-2.212;2022-08-14T13:41:17;7.67;;;5.80;;
22480;SDS011;11407;56.964;-2.212;2022-08-14T13:43:48;6.03;;;5.30;;
22480;SDS011;11407;56.964;-2.212;2022-08-14T13:46:15;7.50;;;6.00;;
22480;SDS011;11407;56.964;-2.212;2022-08-14T13:48:43;6.80;;;5.67;;
22480;SDS011;11407;56.964;-2.212;2022-08-14T13:51:08;7.57;;;5.60;;
22480;SDS011;11407;56.964;-2.212;2022-08-14T13:53:44;6.30;;;5.10;;
22480;SDS011;11407;56.964;-2.212;2022-08-14T13:56:11;6.50;;;5.20;;
22480;SDS011;11407;56.964;-2.212;2022-08-14T13:58:37;5.47;;;4.73;;
22480;SDS011;11407;56.964;-2.212;2022-08-14T14:01:03;6.73;;;5.60;;
22480;SDS011;11407;56.964;-2.212;2022-08-14T14:03:32;6.20;;;5.27;;
22480;SDS011;11407;56.964;-2.212;2022-08-14T14:05:59;7.03;;;5.70;;
22480;SDS011;11407;56.964;-2.212;2022-08-14T14:08:26;6.73;;;5.93;;
22480;SDS011;11407;56.964;-2.212;2022-08-14T14:10:53;6.33;;;5.70;;
22480;SDS011;11407;56.964;-2.212;2022-08-14T14:13:20;6.40;;;5.37;;
22480;SDS011;11407;56.964;-2.212;2022-08-14T14:15:47;6.20;;;5.47;;
22480;SDS011;11407;56.964;-2.212;2022-08-14T14:18:13;5.93;;;5.13;;
22480;SDS011;11407;56.964;-2.212;2022-08-14T14:20:43;6.97;;;5.60;;
22480;SDS011;11407;56.964;-2.212;2022-08-14T14:23:11;6.83;;;5.93;;
22480;SDS011;11407;56.964;-2.212;2022-08-14T14:25:41;6.60;;;5.73;;
22480;SDS011;11407;56.964;-2.212;2022-08-14T14:28:09;6.47;;;5.30;;
22480;SDS011;11407;56.964;-2.212;2022-08-14T14:30:44;5.83;;;5.23;;
22480;SDS011;11407;56.964;-2.212;2022-08-14T14:33:11;6.53;;;5.37;;
22480;SDS011;11407;56.964;-2.212;2022-08-14T14:35:40;7.83;;;5.80;;
22480;SDS011;11407;56.964;-2.212;2022-08-14T14:38:08;6.50;;;5.57;;
22480;SDS011;11407;56.964;-2.212;2022-08-14T14:40:38;6.07;;;5.57;;
22480;SDS011;11407;56.964;-2.212;2022-08-14T14:43:05;7.43;;;5.43;;
22480;SDS011;11407;56.964;-2.212;2022-08-14T14:45:34;8.00;;;5.57;;
22480;SDS011;11407;56.964;-2.212;2022-08-14T14:48:02;7.33;;;5.83;;
22480;SDS011;11407;56.964;-2.212;2022-08-14T14:50:33;6.03;;;5.27;;
22480;SDS011;11407;56.964;-2.212;2022-08-14T14:52:58;8.13;;;6.20;;
22480;SDS011;11407;56.964;-2.212;2022-08-14T14:55:24;7.10;;;5.80;;
22480;SDS011;11407;56.964;-2.212;2022-08-14T14:57:51;6.87;;;5.90;;
22480;SDS011;11407;56.964;-2.212;2022-08-14T15:00:17;6.40;;;5.07;;